Bangor, California
Current Conditions -  °F | °C
As of 1:53 AM on Saturday 25 Oct 2014 (Local Time) from KOVE Reporting Station
Overcast Overcast  
Wind Chill: 63°   Ceiling: 4800
Heat Index: 63°   Visibility: 10mi
Dew Point: 53°   Wind: 15mph
Humidity: 70%   Direction: 130°SE
Pressure: 29.92"   Gusts: NA
Location:  39.39°N, 121.4°W
Report Text: KOVE 250853Z AUTO 13013KT 10SM OVC048 17/12 A2992 RMK AO2 SLP133 T01720117 51013
Loading
Personal Weather Stations






























Interactive Weather Map
Tropical Storm Tracking
New forecast layout! Learn more

10-Day Weather Forecast

Advertisements
Track Severe Weather on mobile